createdAt,value
2019-04-26T00:00:56.682Z,1.65
2019-04-26T00:03:31.462Z,1.70
2019-04-26T00:05:58.955Z,2.10
2019-04-26T00:08:26.263Z,2.15
2019-04-26T00:10:58.162Z,2.67
2019-04-26T00:13:30.166Z,2.30
2019-04-26T00:16:08.365Z,2.35
2019-04-26T00:18:35.739Z,2.30
2019-04-26T00:21:03.107Z,2.40
2019-04-26T00:23:30.753Z,2.37
2019-04-26T00:25:58.330Z,2.75
2019-04-26T00:28:25.721Z,2.15
2019-04-26T00:30:53.075Z,1.92
2019-04-26T00:33:21.391Z,1.70
2019-04-26T00:35:48.824Z,2.08
2019-04-26T00:38:16.180Z,2.17
2019-04-26T00:40:43.736Z,2.77
2019-04-26T00:43:12.766Z,2.02
2019-04-26T00:45:40.172Z,1.90
2019-04-26T00:48:07.556Z,2.65
2019-04-26T00:50:34.936Z,2.35
2019-04-26T00:53:02.215Z,1.90
2019-04-26T00:55:29.895Z,2.00
2019-04-26T00:57:57.186Z,2.50
2019-04-26T01:00:24.626Z,2.27
2019-04-26T01:02:53.539Z,3.10
2019-04-26T01:05:20.937Z,2.50
2019-04-26T01:07:49.918Z,2.50
2019-04-26T01:10:17.733Z,2.45
2019-04-26T01:12:45.126Z,2.80
2019-04-26T01:15:12.427Z,2.77
2019-04-26T01:17:39.709Z,1.90
2019-04-26T01:20:07.037Z,2.35
2019-04-26T01:22:35.812Z,2.47
2019-04-26T01:25:05.631Z,2.40
2019-04-26T01:27:32.972Z,2.58
2019-04-26T01:30:01.312Z,2.37
2019-04-26T01:32:28.584Z,3.15
2019-04-26T01:37:41.048Z,2.65
2019-04-26T01:40:10.030Z,2.60
2019-04-26T01:42:45.249Z,2.60
2019-04-26T01:45:20.430Z,2.40
2019-04-26T01:47:48.734Z,2.85
2019-04-26T01:50:16.027Z,2.70
2019-04-26T01:52:43.353Z,3.08
2019-04-26T01:55:10.651Z,2.62
2019-04-26T01:57:37.962Z,2.85
2019-04-26T02:00:10.754Z,2.50
2019-04-26T02:02:54.614Z,2.75
2019-04-26T02:05:26.281Z,2.70
2019-04-26T02:07:53.670Z,2.95
2019-04-26T02:10:22.443Z,2.85
2019-04-26T02:12:50.465Z,2.90
2019-04-26T02:15:18.726Z,2.83
2019-04-26T02:17:46.370Z,2.60
2019-04-26T02:20:13.724Z,2.45
2019-04-26T02:22:45.860Z,2.50
2019-04-26T02:25:13.222Z,2.62
2019-04-26T02:27:40.581Z,2.50
2019-04-26T02:30:08.743Z,2.72
2019-04-26T02:32:37.054Z,2.65
2019-04-26T02:35:05.722Z,3.05
2019-04-26T02:37:34.755Z,2.70
2019-04-26T02:40:02.158Z,2.40
2019-04-26T02:42:33.932Z,2.25
2019-04-26T02:45:03.459Z,2.90
2019-04-26T02:47:39.673Z,3.20
2019-04-26T02:50:09.747Z,2.80
2019-04-26T02:52:39.293Z,3.10
2019-04-26T02:55:11.325Z,3.15
2019-04-26T02:57:42.045Z,4.03
2019-04-26T03:00:11.110Z,3.55
2019-04-26T03:02:40.355Z,3.60
2019-04-26T03:05:07.796Z,3.45
2019-04-26T03:07:37.617Z,2.95
2019-04-26T03:10:06.319Z,2.90
2019-04-26T03:12:35.695Z,3.45
2019-04-26T03:15:23.391Z,3.20
2019-04-26T03:17:56.922Z,3.55
2019-04-26T03:20:25.876Z,2.95
2019-04-26T03:22:54.890Z,2.95
2019-04-26T03:25:26.960Z,3.35
2019-04-26T03:28:14.279Z,2.60
2019-04-26T03:30:53.313Z,3.12
2019-04-26T03:33:46.660Z,3.02
2019-04-26T03:36:27.262Z,3.45
2019-04-26T03:39:03.809Z,3.12
2019-04-26T03:41:36.316Z,3.30
2019-04-26T03:44:05.242Z,3.87
2019-04-26T03:46:35.698Z,3.15
2019-04-26T03:49:04.774Z,3.77
2019-04-26T03:51:33.825Z,4.30
2019-04-26T03:54:04.214Z,4.08
2019-04-26T03:56:42.359Z,4.03
2019-04-26T03:59:13.459Z,3.62
2019-04-26T04:01:44.318Z,4.87
2019-04-26T04:04:30.224Z,5.10
2019-04-26T04:07:04.358Z,4.55
2019-04-26T04:09:26.386Z,4.17
2019-04-26T04:12:11.053Z,4.85
2019-04-26T04:14:42.629Z,5.10
2019-04-26T04:17:18.689Z,4.15
2019-04-26T04:20:08.395Z,4.78
2019-04-26T04:22:37.931Z,5.17
2019-04-26T04:25:07.958Z,4.40
2019-04-26T04:27:45.766Z,4.53
2019-04-26T04:30:15.654Z,4.37
2019-04-26T04:32:52.086Z,4.22
2019-04-26T04:35:20.498Z,4.60
2019-04-26T04:38:04.284Z,4.33
2019-04-26T04:40:33.656Z,4.22
2019-04-26T04:43:26.429Z,4.80
2019-04-26T04:46:02.524Z,4.80
2019-04-26T04:48:38.924Z,4.45
2019-04-26T04:51:24.124Z,4.55
2019-04-26T04:53:55.707Z,3.92
2019-04-26T04:56:41.567Z,3.27
2019-04-26T04:59:10.133Z,3.60
2019-04-26T05:01:50.363Z,3.83
2019-04-26T05:04:20.938Z,3.37
2019-04-26T05:07:08.658Z,3.35
2019-04-26T05:09:53.833Z,3.90
2019-04-26T05:12:28.689Z,3.05
2019-04-26T05:15:00.458Z,3.17
2019-04-26T05:17:29.364Z,3.72
2019-04-26T05:20:03.961Z,3.60
2019-04-26T05:22:49.021Z,3.35
2019-04-26T05:25:19.585Z,3.42
2019-04-26T05:27:53.058Z,3.52
2019-04-26T05:30:29.359Z,3.20
2019-04-26T05:33:06.954Z,3.20
2019-04-26T05:35:55.355Z,3.33
2019-04-26T05:38:36.066Z,3.30
2019-04-26T05:41:21.437Z,3.40
2019-04-26T05:44:09.874Z,3.77
2019-04-26T05:46:55.785Z,3.62
2019-04-26T05:49:58.898Z,3.30
2019-04-26T05:52:32.263Z,3.30
2019-04-26T05:55:11.338Z,2.90
2019-04-26T05:57:47.420Z,3.10
2019-04-26T06:00:20.786Z,3.33
2019-04-26T06:03:21.311Z,3.70
2019-04-26T06:06:14.226Z,3.80
2019-04-26T06:08:57.455Z,3.50
2019-04-26T06:11:30.546Z,3.20
2019-04-26T06:14:06.611Z,3.60
2019-04-26T06:16:45.135Z,3.40
2019-04-26T06:19:27.237Z,3.00
2019-04-26T06:22:02.183Z,2.72
2019-04-26T06:24:36.741Z,13.03
2019-04-26T06:27:21.901Z,3.60
2019-04-26T06:29:50.841Z,2.92
2019-04-26T06:32:19.804Z,3.05
2019-04-26T06:34:51.696Z,2.67
2019-04-26T06:37:27.896Z,2.50
2019-04-26T06:40:11.932Z,3.30
2019-04-26T06:42:58.209Z,3.15
2019-04-26T06:45:30.883Z,3.45
2019-04-26T06:48:29.346Z,3.00
2019-04-26T06:51:04.893Z,3.08
2019-04-26T06:53:36.627Z,2.72
2019-04-26T06:56:10.046Z,2.52
2019-04-26T06:58:41.638Z,2.22
2019-04-26T07:01:14.896Z,2.42
2019-04-26T07:04:00.394Z,1.80
2019-04-26T07:06:38.096Z,2.17
2019-04-26T07:09:09.305Z,2.62
2019-04-26T07:11:42.441Z,2.62
2019-04-26T07:14:14.308Z,2.25
2019-04-26T07:16:46.203Z,2.37
2019-04-26T07:19:15.123Z,1.70
2019-04-26T07:21:45.700Z,2.30
2019-04-26T07:24:16.256Z,2.70
2019-04-26T07:27:02.962Z,2.37
2019-04-26T07:29:48.331Z,2.05
2019-04-26T07:32:22.948Z,2.00
2019-04-26T07:35:08.694Z,2.62
2019-04-26T07:37:54.412Z,2.37
2019-04-26T07:40:27.855Z,1.77
2019-04-26T07:43:19.193Z,2.90
2019-04-26T07:45:55.340Z,2.92
2019-04-26T07:48:40.865Z,2.40
2019-04-26T07:51:18.746Z,2.40
2019-04-26T07:53:59.614Z,2.00
2019-04-26T07:56:46.367Z,5.08
2019-04-26T07:59:31.489Z,2.05
2019-04-26T08:02:09.015Z,2.20
2019-04-26T08:04:38.118Z,2.02
2019-04-26T08:07:10.372Z,2.33
2019-04-26T08:09:37.758Z,1.98
2019-04-26T08:12:06.075Z,2.45
2019-04-26T08:14:36.817Z,3.47
2019-04-26T08:17:21.928Z,3.33
2019-04-26T08:19:57.601Z,2.90
2019-04-26T08:22:28.321Z,2.80
2019-04-26T08:24:51.718Z,2.70
2019-04-26T08:27:23.556Z,2.77
2019-04-26T08:29:49.637Z,3.42
2019-04-26T08:32:20.374Z,2.83
2019-04-26T08:34:49.363Z,2.37
2019-04-26T08:37:21.012Z,2.20
2019-04-26T08:39:51.903Z,2.58
2019-04-26T08:42:23.486Z,3.30
2019-04-26T08:44:51.235Z,4.92
2019-04-26T08:47:25.991Z,3.12
2019-04-26T08:50:09.710Z,2.60
2019-04-26T08:52:36.162Z,2.30
2019-04-26T08:55:03.977Z,2.60
2019-04-26T08:57:32.059Z,2.65
2019-04-26T08:59:59.420Z,3.27
2019-04-26T09:02:40.439Z,2.90
2019-04-26T09:05:28.214Z,3.80
2019-04-26T09:07:57.610Z,3.45
2019-04-26T09:10:26.076Z,3.90
2019-04-26T09:12:53.364Z,3.60
2019-04-26T09:15:40.712Z,4.03
2019-04-26T09:18:08.085Z,4.03
2019-04-26T09:20:38.581Z,4.05
2019-04-26T09:23:22.164Z,4.65
2019-04-26T09:25:58.967Z,4.20
2019-04-26T09:28:21.715Z,8.25
2019-04-26T09:30:53.727Z,4.60
2019-04-26T09:33:25.570Z,4.45
2019-04-26T09:35:52.888Z,4.00
2019-04-26T09:38:20.165Z,5.10
2019-04-26T09:40:47.454Z,4.87
2019-04-26T09:43:16.783Z,4.62
2019-04-26T09:45:51.674Z,5.17
2019-04-26T09:48:32.650Z,6.30
2019-04-26T09:51:00.993Z,4.15
2019-04-26T09:53:28.283Z,4.60
2019-04-26T09:55:55.799Z,6.53
2019-04-26T09:58:23.063Z,4.95
2019-04-26T10:00:50.430Z,11.40
2019-04-26T10:03:18.098Z,6.72
2019-04-26T10:05:45.393Z,6.15
2019-04-26T10:08:14.402Z,5.35
2019-04-26T10:10:41.847Z,5.47
2019-04-26T10:13:19.594Z,4.60
2019-04-26T10:15:58.127Z,7.22
2019-04-26T10:18:24.302Z,4.53
2019-04-26T10:20:52.222Z,5.55
2019-04-26T10:23:19.510Z,6.40
2019-04-26T10:25:47.385Z,5.10
2019-04-26T10:28:16.973Z,5.20
2019-04-26T10:30:44.619Z,6.03
2019-04-26T10:33:11.915Z,5.50
2019-04-26T10:35:39.224Z,5.85
2019-04-26T10:38:06.524Z,8.38
2019-04-26T10:40:35.772Z,5.55
2019-04-26T10:43:03.135Z,9.40
2019-04-26T10:45:30.514Z,5.70
2019-04-26T10:47:57.809Z,5.65
2019-04-26T10:50:28.868Z,5.37
2019-04-26T10:52:55.796Z,5.60
2019-04-26T10:55:24.692Z,5.62
2019-04-26T10:57:56.420Z,6.03
2019-04-26T11:00:31.211Z,6.03
2019-04-26T11:03:07.263Z,6.05
2019-04-26T11:05:34.646Z,6.67
2019-04-26T11:08:01.943Z,5.55
2019-04-26T11:10:29.258Z,5.33
2019-04-26T11:12:56.582Z,5.78
2019-04-26T11:15:23.899Z,6.78
2019-04-26T11:17:51.255Z,6.87
2019-04-26T11:20:18.582Z,15.83
2019-04-26T11:22:45.860Z,6.25
2019-04-26T11:25:13.146Z,8.83
2019-04-26T11:27:44.324Z,7.12
2019-04-26T11:30:12.225Z,10.03
2019-04-26T11:32:38.654Z,7.15
2019-04-26T11:35:05.975Z,7.95
2019-04-26T11:37:33.266Z,7.25
2019-04-26T11:40:00.533Z,7.40
2019-04-26T11:42:27.844Z,6.75
2019-04-26T11:45:05.667Z,6.95
2019-04-26T11:47:24.057Z,6.67
2019-04-26T11:49:51.588Z,12.93
2019-04-26T11:52:18.837Z,9.15
2019-04-26T11:54:46.135Z,17.17
2019-04-26T11:57:13.677Z,8.60
2019-04-26T11:59:40.948Z,8.90
2019-04-26T12:02:08.314Z,6.80
2019-04-26T12:04:37.260Z,8.65
2019-04-26T12:07:06.198Z,11.45
2019-04-26T12:09:44.260Z,13.55
2019-04-26T12:12:13.161Z,7.08
2019-04-26T12:14:40.489Z,6.35
2019-04-26T12:17:07.815Z,6.35
2019-04-26T12:19:35.107Z,5.42
2019-04-26T12:22:04.285Z,4.50
2019-04-26T12:24:34.427Z,5.42
2019-04-26T12:27:00.451Z,11.20
2019-04-26T12:29:27.692Z,10.63
2019-04-26T12:31:54.990Z,6.25
2019-04-26T12:34:22.308Z,4.95
2019-04-26T12:36:49.598Z,6.80
2019-04-26T12:39:17.485Z,7.97
2019-04-26T12:41:44.775Z,5.10
2019-04-26T12:44:12.774Z,5.17
2019-04-26T12:46:53.462Z,5.62
2019-04-26T12:49:24.261Z,8.15
2019-04-26T12:51:52.059Z,4.50
2019-04-26T12:54:18.714Z,4.92
2019-04-26T12:56:46.029Z,5.87
2019-04-26T12:59:15.722Z,4.78
2019-04-26T13:01:42.565Z,4.53
2019-04-26T13:04:11.215Z,5.03
2019-04-26T13:06:40.142Z,5.10
2019-04-26T13:09:11.723Z,5.33
2019-04-26T13:11:57.708Z,4.90
2019-04-26T13:14:44.407Z,4.50
2019-04-26T13:17:16.090Z,4.90
2019-04-26T13:19:43.381Z,4.40
2019-04-26T13:22:12.582Z,6.22
2019-04-26T13:24:40.847Z,4.35
2019-04-26T13:27:10.559Z,4.60
2019-04-26T13:29:37.180Z,4.30
2019-04-26T13:32:04.466Z,3.80
2019-04-26T13:34:33.284Z,5.17
2019-04-26T13:37:03.028Z,5.35
2019-04-26T13:39:29.654Z,12.60
2019-04-26T13:42:04.645Z,12.68
2019-04-26T13:44:44.025Z,4.95
2019-04-26T13:47:12.982Z,7.80
2019-04-26T13:49:41.908Z,5.72
2019-04-26T13:52:09.198Z,5.55
2019-04-26T13:54:36.501Z,5.42
2019-04-26T13:57:06.101Z,13.48
2019-04-26T13:59:32.842Z,5.00
2019-04-26T14:02:10.779Z,7.28
2019-04-26T14:04:29.070Z,6.25
2019-04-26T14:06:56.390Z,7.78
2019-04-26T14:09:23.702Z,7.45
2019-04-26T14:11:50.986Z,6.53
2019-04-26T14:14:18.311Z,8.13
2019-04-26T14:16:45.602Z,6.40
2019-04-26T14:19:15.444Z,9.68
2019-04-26T14:21:41.872Z,6.80
2019-04-26T14:24:24.094Z,6.12
2019-04-26T14:26:50.391Z,7.72
2019-04-26T14:29:17.710Z,10.00
2019-04-26T14:31:47.259Z,8.35
2019-04-26T14:34:13.978Z,10.55
2019-04-26T14:36:43.609Z,11.95
2019-04-26T14:39:10.700Z,9.58
2019-04-26T14:41:39.253Z,10.20
2019-04-26T14:44:15.192Z,15.60
2019-04-26T14:46:47.969Z,9.58
2019-04-26T14:49:05.784Z,11.85
2019-04-26T14:51:33.174Z,9.58
2019-04-26T14:54:00.494Z,10.32
2019-04-26T14:56:29.218Z,11.95
2019-04-26T14:58:56.743Z,11.28
2019-04-26T15:01:28.481Z,11.40
2019-04-26T15:04:13.047Z,11.75
2019-04-26T15:06:51.947Z,10.50
2019-04-26T15:09:20.104Z,10.70
2019-04-26T15:11:56.953Z,10.23
2019-04-26T15:14:19.325Z,10.65
2019-04-26T15:16:45.006Z,11.75
2019-04-26T15:19:14.264Z,12.00
2019-04-26T15:21:42.239Z,13.00
2019-04-26T15:24:09.537Z,11.93
2019-04-26T15:26:36.830Z,13.00
2019-04-26T15:29:04.552Z,11.75
2019-04-26T15:31:33.090Z,12.18
2019-04-26T15:34:00.435Z,17.07
2019-04-26T15:36:27.750Z,19.05
2019-04-26T15:38:55.424Z,11.48
2019-04-26T15:41:33.427Z,16.85
2019-04-26T15:44:08.143Z,12.65
2019-04-26T15:46:53.745Z,15.60
2019-04-26T15:49:26.181Z,16.27
2019-04-26T15:51:51.718Z,11.95
2019-04-26T15:54:21.586Z,23.02
2019-04-26T15:56:49.372Z,115.47
2019-04-26T15:59:18.366Z,25.17
2019-04-26T16:01:49.043Z,24.20
2019-04-26T16:04:17.446Z,20.10
2019-04-26T16:06:45.098Z,15.83
2019-04-26T16:09:13.831Z,14.23
2019-04-26T16:11:42.820Z,19.55
2019-04-26T16:14:12.311Z,15.78
2019-04-26T16:16:39.321Z,15.43
2019-04-26T16:19:06.618Z,14.03
2019-04-26T16:21:33.932Z,13.43
2019-04-26T16:24:02.738Z,10.58
2019-04-26T16:26:30.122Z,9.73
2019-04-26T16:29:05.134Z,11.40
2019-04-26T16:31:46.048Z,10.00
2019-04-26T16:34:16.523Z,10.50
2019-04-26T16:36:45.228Z,9.95
2019-04-26T16:39:13.188Z,11.43
2019-04-26T16:41:42.008Z,11.57
2019-04-26T16:44:09.307Z,10.85
2019-04-26T16:46:36.613Z,9.53
2019-04-26T16:49:05.765Z,9.88
2019-04-26T16:51:34.093Z,11.95
2019-04-26T16:54:07.549Z,11.12
2019-04-26T16:56:30.595Z,9.08
2019-04-26T16:58:57.883Z,9.50
2019-04-26T17:01:25.202Z,9.75
2019-04-26T17:03:53.520Z,9.30
2019-04-26T17:06:22.869Z,9.10
2019-04-26T17:08:57.670Z,8.70
2019-04-26T17:11:18.902Z,9.43
2019-04-26T17:13:51.566Z,11.57
2019-04-26T17:16:15.176Z,11.88
2019-04-26T17:18:42.767Z,10.72
2019-04-26T17:21:10.146Z,11.78
2019-04-26T17:24:00.833Z,9.95
2019-04-26T17:26:29.263Z,6.90
2019-04-26T17:28:56.698Z,7.00
2019-04-26T17:31:24.016Z,8.25
2019-04-26T17:33:51.291Z,7.83
2019-04-26T17:36:18.586Z,7.30
2019-04-26T17:38:45.982Z,7.05
2019-04-26T17:41:13.857Z,6.58
2019-04-26T17:43:46.941Z,7.10
2019-04-26T17:46:10.662Z,7.22
2019-04-26T17:48:40.754Z,6.97
2019-04-26T17:51:11.769Z,8.20
2019-04-26T17:53:37.102Z,8.50
2019-04-26T17:56:04.519Z,8.55
2019-04-26T17:58:34.311Z,9.00
2019-04-26T18:01:03.645Z,7.10
2019-04-26T18:03:29.866Z,7.65
2019-04-26T18:05:59.373Z,7.70
2019-04-26T18:08:41.002Z,7.92
2019-04-26T18:10:55.034Z,8.83
2019-04-26T18:13:22.314Z,8.70
2019-04-26T18:15:49.636Z,7.95
2019-04-26T18:18:30.457Z,9.50
2019-04-26T18:21:03.001Z,9.18
2019-04-26T18:23:31.131Z,8.80
2019-04-26T18:25:58.415Z,8.63
2019-04-26T18:28:25.728Z,9.50
2019-04-26T18:30:53.189Z,9.70
2019-04-26T18:33:24.134Z,8.93
2019-04-26T18:35:55.865Z,8.95
2019-04-26T18:38:18.437Z,9.63
2019-04-26T18:41:00.047Z,10.15
2019-04-26T18:43:17.632Z,9.18
2019-04-26T18:45:45.508Z,9.13
2019-04-26T18:48:13.804Z,10.20
2019-04-26T18:50:41.135Z,10.48
2019-04-26T18:53:10.070Z,10.23
2019-04-26T18:55:37.391Z,8.95
2019-04-26T18:58:05.623Z,9.80
2019-04-26T19:00:40.354Z,9.33
2019-04-26T19:03:07.652Z,9.80
2019-04-26T19:05:34.946Z,9.98
2019-04-26T19:08:02.651Z,9.78
2019-04-26T19:10:34.157Z,9.03
2019-04-26T19:13:02.067Z,8.73
2019-04-26T19:15:40.516Z,9.58
2019-04-26T19:18:05.456Z,9.85
2019-04-26T19:20:34.490Z,10.85
2019-04-26T19:23:03.279Z,10.15
2019-04-26T19:25:34.481Z,10.08
2019-04-26T19:28:04.420Z,10.10
2019-04-26T19:30:28.534Z,11.20
2019-04-26T19:32:55.810Z,11.70
2019-04-26T19:35:23.094Z,10.85
2019-04-26T19:37:51.766Z,10.85
2019-04-26T19:40:19.110Z,11.70
2019-04-26T19:42:46.420Z,10.70
2019-04-26T19:45:19.243Z,10.08
2019-04-26T19:48:02.301Z,10.32
2019-04-26T19:50:48.450Z,10.63
2019-04-26T19:53:23.022Z,10.03
2019-04-26T19:56:06.928Z,10.32
2019-04-26T19:58:42.126Z,11.57
2019-04-26T20:01:09.573Z,13.08
2019-04-26T20:03:36.902Z,11.40
2019-04-26T20:06:05.001Z,11.22
2019-04-26T20:08:35.420Z,12.05
2019-04-26T20:11:01.566Z,11.43
2019-04-26T20:13:28.859Z,11.18
2019-04-26T20:15:57.456Z,12.55
2019-04-26T20:18:25.110Z,12.30
2019-04-26T20:20:52.422Z,11.65
2019-04-26T20:23:19.834Z,12.28
2019-04-26T20:25:47.134Z,10.43
2019-04-26T20:28:14.483Z,12.65
2019-04-26T20:30:49.209Z,14.83
2019-04-26T20:33:16.596Z,12.30
2019-04-26T20:35:43.910Z,12.37
2019-04-26T20:38:11.845Z,14.18
2019-04-26T20:40:39.221Z,13.38
2019-04-26T20:43:06.991Z,12.13
2019-04-26T20:45:41.475Z,11.95
2019-04-26T20:48:04.430Z,14.18
2019-04-26T20:50:35.277Z,12.95
2019-04-26T20:53:02.245Z,12.85
2019-04-26T20:55:30.618Z,13.38
2019-04-26T20:57:59.942Z,12.95
2019-04-26T21:00:27.650Z,12.53
2019-04-26T21:03:01.502Z,12.63
2019-04-26T21:05:24.168Z,11.53
2019-04-26T21:07:51.477Z,11.18
2019-04-26T21:10:22.125Z,12.05
2019-04-26T21:12:52.287Z,11.10
2019-04-26T21:15:20.188Z,10.65
2019-04-26T21:17:45.661Z,12.55
2019-04-26T21:20:13.030Z,12.15
2019-04-26T21:22:41.931Z,11.90
2019-04-26T21:25:11.838Z,12.43
2019-04-26T21:27:52.718Z,12.68
2019-04-26T21:30:24.673Z,12.43
2019-04-26T21:32:56.068Z,12.63
2019-04-26T21:35:25.012Z,12.95
2019-04-26T21:37:56.461Z,12.43
2019-04-26T21:40:28.229Z,13.15
2019-04-26T21:42:59.521Z,12.10
2019-04-26T21:45:28.201Z,13.65
2019-04-26T21:47:54.286Z,12.30
2019-04-26T21:50:21.651Z,14.25
2019-04-26T21:52:48.941Z,13.75
2019-04-26T21:55:16.712Z,13.50
2019-04-26T21:57:44.074Z,13.78
2019-04-26T22:00:13.862Z,13.28
2019-04-26T22:02:42.914Z,13.78
2019-04-26T22:05:11.820Z,13.75
2019-04-26T22:07:43.770Z,14.50
2019-04-26T22:10:15.794Z,15.03
2019-04-26T22:12:43.230Z,15.20
2019-04-26T22:15:25.535Z,15.25
2019-04-26T22:17:57.407Z,15.35
2019-04-26T22:20:29.336Z,16.87
2019-04-26T22:23:04.042Z,15.90
2019-04-26T22:25:33.238Z,15.20
2019-04-26T22:28:01.377Z,15.05
2019-04-26T22:30:29.607Z,14.95
2019-04-26T22:32:58.408Z,13.15
2019-04-26T22:35:25.899Z,13.62
2019-04-26T22:37:53.760Z,13.05
2019-04-26T22:40:21.114Z,14.13
2019-04-26T22:42:50.046Z,13.90
2019-04-26T22:45:18.997Z,13.65
2019-04-26T22:48:03.399Z,15.30
2019-04-26T22:50:30.829Z,14.60
2019-04-26T22:52:58.121Z,14.05
2019-04-26T22:55:27.569Z,14.90
2019-04-26T22:57:54.391Z,14.80
2019-04-26T23:00:27.056Z,15.75
2019-04-26T23:02:53.358Z,15.38
2019-04-26T23:05:20.679Z,16.48
2019-04-26T23:07:47.967Z,17.12
2019-04-26T23:10:15.969Z,15.85
2019-04-26T23:12:50.806Z,17.27
2019-04-26T23:15:35.904Z,16.95
2019-04-26T23:18:08.141Z,17.75
2019-04-26T23:20:44.034Z,18.00
2019-04-26T23:23:11.330Z,17.77
2019-04-26T23:25:38.629Z,19.15
2019-04-26T23:28:05.953Z,19.55
2019-04-26T23:30:33.265Z,20.00
2019-04-26T23:33:00.559Z,21.52
2019-04-26T23:35:27.882Z,19.32
2019-04-26T23:37:56.658Z,20.50
2019-04-26T23:40:25.657Z,19.73
2019-04-26T23:42:54.498Z,19.67
2019-04-26T23:45:23.106Z,20.57
2019-04-26T23:47:50.418Z,19.73
2019-04-26T23:50:17.723Z,19.27
2019-04-26T23:52:49.119Z,19.62
2019-04-26T23:55:13.971Z,20.02
2019-04-26T23:57:41.262Z,19.67
